Time;durP1;ratioP1;P1;durP2;ratioP2;P2;SDS_P1;SDS_P2;PMS_P1;PMS_P2;Temp;Humidity;BMP_temperature;BMP_pressure;BME280_temperature;BME280_humidity;BME280_pressure;Samples;Min_cycle;Max_cycle;Signal;HPM_P1;HPM_P2
2022/03/31 00:01:13;;;;;;;10.60;9.17;;;7.00;99.90;;;;;;5120817;28;20448;-79
2022/03/31 00:03:58;;;;;;;15.80;9.67;;;6.70;99.90;;;;;;5120262;28;20386;-80
2022/03/31 00:06:44;;;;;;;17.67;9.80;;;6.70;99.90;;;;;;5120374;28;20739;-80
2022/03/31 00:09:28;;;;;;;11.13;9.97;;;6.80;99.90;;;;;;5120669;28;20449;-81
2022/03/31 00:12:13;;;;;;;15.00;9.80;;;6.90;99.90;;;;;;5121290;28;20391;-80
2022/03/31 00:14:57;;;;;;;12.20;10.10;;;7.00;99.90;;;;;;5124490;28;20407;-79
2022/03/31 00:17:43;;;;;;;16.50;11.30;;;7.10;99.90;;;;;;5119746;28;20375;-80
2022/03/31 00:20:28;;;;;;;16.33;10.13;;;7.30;99.90;;;;;;5119822;28;20391;-80
2022/03/31 00:23:13;;;;;;;18.93;12.00;;;7.20;99.90;;;;;;5119787;28;20446;-80
2022/03/31 00:25:57;;;;;;;13.47;9.70;;;7.40;99.90;;;;;;5119761;28;20429;-80
2022/03/31 00:28:42;;;;;;;11.73;9.30;;;7.30;99.90;;;;;;5119452;28;20436;-80
2022/03/31 00:31:26;;;;;;;15.47;8.90;;;7.30;99.90;;;;;;5119641;28;20426;-80
2022/03/31 00:34:11;;;;;;;16.47;11.43;;;7.50;99.90;;;;;;5119538;28;20390;-80
2022/03/31 00:36:55;;;;;;;17.33;11.43;;;7.60;99.90;;;;;;5119760;28;20412;-80
2022/03/31 00:39:42;;;;;;;12.13;10.60;;;7.60;99.90;;;;;;5119248;28;20382;-80
2022/03/31 00:42:26;;;;;;;10.90;8.97;;;7.70;99.90;;;;;;5118710;28;20429;-79
2022/03/31 00:45:14;;;;;;;12.17;9.47;;;7.60;99.90;;;;;;5122038;28;20378;-80
2022/03/31 00:47:58;;;;;;;14.90;11.10;;;7.70;99.90;;;;;;5122804;28;20379;-80
2022/03/31 00:51:03;;;;;;;13.27;9.23;;;7.80;99.90;;;;;;5122647;28;20946;-80
2022/03/31 00:53:48;;;;;;;17.67;11.00;;;7.80;99.90;;;;;;5080305;28;20578;-80
2022/03/31 00:56:33;;;;;;;12.17;9.87;;;7.80;99.90;;;;;;5080111;28;20935;-80
2022/03/31 00:59:18;;;;;;;14.63;10.50;;;7.80;99.90;;;;;;5066204;28;20527;-80
2022/03/31 01:02:03;;;;;;;15.00;10.33;;;7.80;99.90;;;;;;5065375;28;20478;-80
2022/03/31 01:04:49;;;;;;;15.10;10.23;;;7.80;99.90;;;;;;5079886;28;20401;-80
2022/03/31 01:07:37;;;;;;;12.63;9.30;;;7.80;99.90;;;;;;5080287;28;20530;-80
2022/03/31 01:10:21;;;;;;;14.23;11.57;;;7.80;99.90;;;;;;5079797;28;20452;-80
2022/03/31 01:13:07;;;;;;;12.93;10.13;;;7.80;99.90;;;;;;5080290;28;20405;-80
2022/03/31 01:15:51;;;;;;;14.73;11.27;;;7.60;99.90;;;;;;5080495;28;20507;-80
2022/03/31 01:18:36;;;;;;;10.60;9.07;;;7.70;99.90;;;;;;5081411;28;20397;-79
2022/03/31 01:21:20;;;;;;;11.60;9.60;;;7.70;99.90;;;;;;5078771;28;20436;-80
2022/03/31 01:24:07;;;;;;;14.20;9.63;;;7.50;99.90;;;;;;5093319;28;20437;-80
2022/03/31 01:26:51;;;;;;;12.33;10.53;;;7.20;99.90;;;;;;5122020;28;20392;-80
2022/03/31 01:29:35;;;;;;;13.97;10.63;;;6.80;99.90;;;;;;5121959;28;20383;-80
2022/03/31 01:32:21;;;;;;;15.83;11.20;;;6.80;99.90;;;;;;5122105;28;20737;-80
2022/03/31 01:35:06;;;;;;;14.70;10.73;;;7.20;99.90;;;;;;5122816;28;20742;-80
2022/03/31 01:37:50;;;;;;;16.33;11.30;;;7.30;99.90;;;;;;5121834;28;20517;-80
2022/03/31 01:40:35;;;;;;;15.17;11.20;;;7.30;99.90;;;;;;5121714;28;20387;-80
2022/03/31 01:43:20;;;;;;;15.00;10.40;;;7.50;99.90;;;;;;5105809;28;20446;-80
2022/03/31 01:46:08;;;;;;;16.87;11.13;;;7.50;99.90;;;;;;5121442;28;20383;-80
2022/03/31 01:48:55;;;;;;;14.53;10.87;;;7.20;99.90;;;;;;5121959;28;20387;-80
2022/03/31 01:51:39;;;;;;;13.53;10.70;;;7.40;99.90;;;;;;5121474;28;20380;-80
2022/03/31 01:54:24;;;;;;;12.23;10.40;;;7.50;99.90;;;;;;5121136;28;20406;-80
2022/03/31 01:57:09;;;;;;;16.27;11.87;;;7.50;99.90;;;;;;5121321;28;20441;-80
2022/03/31 01:59:54;;;;;;;15.77;10.70;;;7.10;99.90;;;;;;5121935;28;20383;-81
2022/03/31 02:02:39;;;;;;;15.40;10.17;;;7.40;99.90;;;;;;5121399;28;20950;-80
2022/03/31 02:05:24;;;;;;;16.47;11.17;;;7.00;99.90;;;;;;5122083;28;20379;-80
2022/03/31 02:08:09;;;;;;;15.43;10.57;;;7.40;99.90;;;;;;5133392;28;20407;-79
2022/03/31 02:10:53;;;;;;;15.80;12.33;;;7.50;99.90;;;;;;5137776;28;20450;-79
2022/03/31 02:13:38;;;;;;;13.40;10.40;;;7.60;99.90;;;;;;5139842;28;20402;-79
2022/03/31 02:16:23;;;;;;;16.90;11.37;;;7.00;99.90;;;;;;5124172;28;20418;-79
2022/03/31 02:19:08;;;;;;;14.97;10.93;;;6.80;99.90;;;;;;5136684;28;20425;-80
2022/03/31 02:21:55;;;;;;;17.43;11.90;;;6.70;99.90;;;;;;5121580;28;20443;-80
2022/03/31 02:24:39;;;;;;;18.03;11.60;;;6.90;99.90;;;;;;5121147;28;20642;-80
2022/03/31 02:27:23;;;;;;;17.10;10.30;;;7.00;99.90;;;;;;5121305;28;20867;-80
2022/03/31 02:30:10;;;;;;;15.63;11.40;;;7.10;99.90;;;;;;5105596;28;20407;-80
2022/03/31 02:32:54;;;;;;;18.53;12.60;;;7.10;99.90;;;;;;5121749;28;20777;-80
2022/03/31 02:35:39;;;;;;;18.13;12.80;;;6.90;99.90;;;;;;5107209;28;20429;-80
2022/03/31 02:38:23;;;;;;;16.47;11.60;;;6.90;99.90;;;;;;5121270;28;20386;-80
2022/03/31 02:41:08;;;;;;;14.83;10.80;;;6.70;99.90;;;;;;5120872;28;20387;-79
2022/03/31 02:43:52;;;;;;;15.13;12.70;;;7.10;99.90;;;;;;5121384;28;20874;-79
2022/03/31 02:46:39;;;;;;;16.03;11.30;;;7.30;99.90;;;;;;5120930;28;20461;-80
2022/03/31 02:49:23;;;;;;;19.67;15.10;;;7.50;99.90;;;;;;5120962;28;20444;-80
2022/03/31 02:52:08;;;;;;;15.50;12.03;;;7.60;99.90;;;;;;5121461;28;20157;-81
2022/03/31 02:58:01;;;;;;;13.20;11.30;;;7.40;99.90;;;;;;5121097;28;20383;-78
2022/03/31 03:00:46;;;;;;;18.37;12.50;;;7.60;99.90;;;;;;5120912;28;20437;-80
2022/03/31 03:03:32;;;;;;;11.83;9.60;;;7.60;99.90;;;;;;5122410;28;20379;-81
2022/03/31 03:06:17;;;;;;;19.23;13.07;;;7.60;99.90;;;;;;5121905;28;20416;-79
2022/03/31 03:09:01;;;;;;;15.20;10.87;;;7.60;99.90;;;;;;5107135;28;20434;-80
2022/03/31 03:11:46;;;;;;;12.00;10.07;;;7.70;99.90;;;;;;5108855;28;20390;-80
2022/03/31 03:14:31;;;;;;;14.10;11.03;;;7.70;99.90;;;;;;5131137;28;20411;-80
2022/03/31 03:17:16;;;;;;;16.17;12.40;;;7.70;99.90;;;;;;5130087;28;20372;-79
2022/03/31 03:20:01;;;;;;;13.90;11.40;;;7.70;99.90;;;;;;5107087;28;20383;-80
2022/03/31 03:22:49;;;;;;;12.83;9.90;;;7.80;99.90;;;;;;5122297;28;20462;-79
2022/03/31 03:25:34;;;;;;;15.47;11.03;;;7.80;99.90;;;;;;5121898;28;20387;-80
2022/03/31 03:28:19;;;;;;;16.43;11.47;;;7.80;99.90;;;;;;5121444;28;20436;-80
2022/03/31 03:31:05;;;;;;;18.03;12.23;;;7.70;99.90;;;;;;5122940;28;20379;-80
2022/03/31 03:33:50;;;;;;;20.50;12.20;;;7.60;99.90;;;;;;5126071;28;20390;-78
2022/03/31 03:36:34;;;;;;;14.10;10.97;;;7.60;99.90;;;;;;5133812;28;20399;-79
2022/03/31 03:39:18;;;;;;;17.23;11.73;;;7.60;99.90;;;;;;5134150;28;20471;-78
2022/03/31 03:42:03;;;;;;;19.70;13.13;;;7.70;99.90;;;;;;5133638;28;20433;-78
2022/03/31 03:44:47;;;;;;;18.67;10.50;;;7.70;99.90;;;;;;5131770;28;20383;-78
2022/03/31 03:47:32;;;;;;;15.77;11.53;;;7.60;99.90;;;;;;5108796;28;20419;-78
2022/03/31 03:50:17;;;;;;;21.13;13.40;;;7.70;99.90;;;;;;5109632;28;20475;-78
2022/03/31 03:53:03;;;;;;;15.20;11.07;;;7.60;99.90;;;;;;5095251;28;20787;-78
2022/03/31 03:55:48;;;;;;;18.37;13.40;;;7.60;99.90;;;;;;5110962;28;20423;-78
2022/03/31 03:58:33;;;;;;;19.80;10.00;;;7.40;99.90;;;;;;5107849;28;20435;-79
2022/03/31 04:01:19;;;;;;;13.13;11.10;;;7.30;99.90;;;;;;5099120;28;20407;-80
2022/03/31 04:04:04;;;;;;;17.40;12.90;;;7.40;99.90;;;;;;5099107;28;20379;-80
2022/03/31 04:06:48;;;;;;;20.63;13.37;;;7.50;99.90;;;;;;5098623;28;20420;-80
2022/03/31 04:09:33;;;;;;;18.07;10.27;;;7.50;99.90;;;;;;5098643;28;20439;-80
2022/03/31 04:12:17;;;;;;;17.57;12.30;;;7.50;99.90;;;;;;5099039;28;20461;-80
2022/03/31 04:15:02;;;;;;;20.40;11.87;;;7.40;99.90;;;;;;5098995;28;20415;-80
2022/03/31 04:17:47;;;;;;;17.37;12.30;;;7.20;99.90;;;;;;5099571;28;20395;-80
2022/03/31 04:20:31;;;;;;;18.47;11.90;;;7.40;99.90;;;;;;5102643;28;20427;-79
2022/03/31 04:23:16;;;;;;;16.70;11.40;;;7.10;99.90;;;;;;5103291;28;20447;-80
2022/03/31 04:26:00;;;;;;;18.20;12.67;;;7.10;99.90;;;;;;5103235;28;20368;-80
2022/03/31 04:28:45;;;;;;;15.93;12.10;;;7.30;99.90;;;;;;5088706;28;20387;-80
2022/03/31 04:31:30;;;;;;;22.00;12.93;;;7.10;99.90;;;;;;5104831;28;20384;-80
2022/03/31 04:34:15;;;;;;;19.37;12.63;;;7.20;99.90;;;;;;5104303;28;20395;-80
2022/03/31 04:37:00;;;;;;;14.83;10.60;;;7.40;99.90;;;;;;5104739;28;20411;-79
2022/03/31 04:39:45;;;;;;;16.70;11.37;;;7.50;99.90;;;;;;5109989;28;20426;-79
2022/03/31 04:42:30;;;;;;;17.07;12.40;;;7.50;99.90;;;;;;5110707;28;20439;-78
2022/03/31 04:45:15;;;;;;;21.37;13.70;;;7.20;99.90;;;;;;5111786;28;20392;-79
2022/03/31 04:48:00;;;;;;;18.47;13.53;;;7.30;99.90;;;;;;5113078;28;20383;-80
2022/03/31 04:50:45;;;;;;;27.03;15.00;;;7.40;99.90;;;;;;5087769;28;20396;-80
2022/03/31 04:53:29;;;;;;;18.80;13.57;;;7.30;99.90;;;;;;5103244;28;20381;-80
2022/03/31 04:56:15;;;;;;;19.60;13.07;;;7.10;99.90;;;;;;5102731;28;20435;-80
2022/03/31 04:59:19;;;;;;;18.60;14.13;;;7.30;99.90;;;;;;5101408;28;20431;-80
2022/03/31 05:02:04;;;;;;;18.40;12.03;;;7.30;99.90;;;;;;5086242;28;20482;-80
2022/03/31 05:04:49;;;;;;;19.73;13.20;;;7.10;99.90;;;;;;5066170;28;20408;-80
2022/03/31 05:07:34;;;;;;;26.17;16.17;;;7.30;99.90;;;;;;5101494;28;20495;-81
2022/03/31 05:10:19;;;;;;;17.70;12.80;;;7.20;99.90;;;;;;5102253;28;20451;-80
2022/03/31 05:13:04;;;;;;;19.20;12.73;;;7.30;99.90;;;;;;5087888;28;20478;-80
2022/03/31 05:15:49;;;;;;;15.97;13.00;;;7.00;99.90;;;;;;5087781;28;20415;-80
2022/03/31 05:18:33;;;;;;;21.73;13.00;;;6.80;99.90;;;;;;5108991;28;20474;-80
2022/03/31 05:21:18;;;;;;;16.27;10.17;;;6.90;99.90;;;;;;5104746;28;20473;-80
2022/03/31 05:24:03;;;;;;;18.13;12.67;;;6.80;99.90;;;;;;5087871;28;20746;-80
2022/03/31 05:26:49;;;;;;;16.27;12.20;;;7.00;99.90;;;;;;5102766;28;20408;-80
2022/03/31 05:29:34;;;;;;;18.70;11.53;;;7.20;99.90;;;;;;5102907;28;20424;-80
2022/03/31 05:32:18;;;;;;;17.70;11.87;;;7.30;99.90;;;;;;5103406;28;20399;-80
2022/03/31 05:35:03;;;;;;;14.30;10.43;;;7.20;99.90;;;;;;5102098;28;20465;-80
2022/03/31 05:37:48;;;;;;;18.50;11.63;;;7.30;99.90;;;;;;5101699;28;20399;-81
2022/03/31 05:40:33;;;;;;;25.57;14.23;;;7.30;99.90;;;;;;5095896;28;20535;-81
2022/03/31 05:43:17;;;;;;;16.17;11.30;;;7.20;99.90;;;;;;5099641;28;20451;-81
2022/03/31 05:46:03;;;;;;;17.60;13.00;;;7.30;99.90;;;;;;5101036;28;20924;-80
2022/03/31 05:48:49;;;;;;;14.70;11.20;;;7.30;99.90;;;;;;5069958;28;20707;-79
2022/03/31 05:51:33;;;;;;;17.93;12.50;;;7.50;99.90;;;;;;5084701;28;20977;-80
2022/03/31 05:54:17;;;;;;;14.83;11.67;;;7.60;99.90;;;;;;5080113;28;20420;-80
2022/03/31 05:57:02;;;;;;;18.40;12.30;;;7.60;99.90;;;;;;5100939;28;20431;-80
2022/03/31 05:59:46;;;;;;;16.10;11.77;;;7.60;99.90;;;;;;5098061;28;20946;-80
2022/03/31 06:02:30;;;;;;;21.83;11.83;;;7.60;99.90;;;;;;5095360;28;20501;-80
2022/03/31 06:05:17;;;;;;;18.73;12.00;;;7.60;99.90;;;;;;5098759;28;20427;-80
2022/03/31 06:08:01;;;;;;;18.10;11.17;;;7.70;99.90;;;;;;5099923;28;20490;-80
2022/03/31 06:10:46;;;;;;;18.10;11.20;;;7.60;99.90;;;;;;5091259;28;20503;-80
2022/03/31 06:13:31;;;;;;;18.20;11.73;;;7.60;99.90;;;;;;5090744;28;20471;-80
2022/03/31 06:16:15;;;;;;;15.30;12.00;;;7.60;99.90;;;;;;5099721;28;20440;-80
2022/03/31 06:19:00;;;;;;;18.60;12.57;;;7.60;99.90;;;;;;5100322;28;20524;-80
2022/03/31 06:21:45;;;;;;;15.17;11.83;;;7.60;99.90;;;;;;5105784;28;20453;-80
2022/03/31 06:24:29;;;;;;;17.07;11.40;;;7.60;99.90;;;;;;5102138;28;20412;-80
2022/03/31 06:27:14;;;;;;;17.20;12.07;;;7.80;99.90;;;;;;5097114;28;20431;-80
2022/03/31 06:29:58;;;;;;;15.60;10.73;;;7.20;99.90;;;;;;5095728;28;20420;-80
2022/03/31 06:32:43;;;;;;;21.63;14.03;;;7.40;99.90;;;;;;5100119;28;20443;-80
2022/03/31 06:35:28;;;;;;;20.30;13.20;;;7.40;99.90;;;;;;5110745;28;20424;-79
2022/03/31 06:38:13;;;;;;;20.37;12.27;;;7.50;99.90;;;;;;5112119;28;20405;-80
2022/03/31 06:41:06;;;;;;;20.80;11.50;;;7.30;99.90;;;;;;5100471;28;20435;-79
2022/03/31 06:43:51;;;;;;;18.17;12.93;;;7.40;99.90;;;;;;5101110;28;20470;-80
2022/03/31 06:46:36;;;;;;;17.83;11.30;;;7.60;99.90;;;;;;5099863;28;20427;-80
2022/03/31 06:49:21;;;;;;;13.10;10.50;;;7.50;99.90;;;;;;5109132;27;20424;-79
2022/03/31 06:52:07;;;;;;;15.00;10.60;;;7.60;99.90;;;;;;5095358;28;20415;-80
2022/03/31 06:54:51;;;;;;;22.70;12.40;;;7.40;99.90;;;;;;5110882;28;20434;-81
2022/03/31 06:57:36;;;;;;;15.70;12.03;;;7.10;99.90;;;;;;5111948;28;20440;-80
2022/03/31 07:00:21;;;;;;;18.47;10.80;;;7.30;99.90;;;;;;5107051;28;20413;-80
2022/03/31 07:03:06;;;;;;;16.07;10.77;;;7.50;99.90;;;;;;5088844;28;20474;-82
2022/03/31 07:05:52;;;;;;;26.50;12.13;;;7.60;99.90;;;;;;5097757;28;20424;-81
2022/03/31 07:08:37;;;;;;;24.00;13.23;;;7.60;99.90;;;;;;5066730;28;20478;-82
2022/03/31 07:11:21;;;;;;;17.83;11.43;;;7.70;99.90;;;;;;5082232;28;20451;-81
2022/03/31 07:14:06;;;;;;;19.63;12.23;;;7.70;99.90;;;;;;5085564;28;20444;-79
2022/03/31 07:16:51;;;;;;;21.00;12.37;;;7.30;99.90;;;;;;5107622;28;20447;-81
2022/03/31 07:19:36;;;;;;;14.60;10.40;;;7.50;99.90;;;;;;5098150;28;20424;-82
2022/03/31 07:22:48;;;;;;;20.70;12.33;;;7.60;99.90;;;;;;5060265;28;21343;-81
2022/03/31 07:25:33;;;;;;;24.93;12.83;;;7.50;99.90;;;;;;5013457;28;20519;-81
2022/03/31 07:28:17;;;;;;;18.40;12.63;;;7.60;99.90;;;;;;5042689;28;20799;-81
2022/03/31 07:31:02;;;;;;;20.87;12.83;;;7.40;99.90;;;;;;5032076;28;20537;-79
2022/03/31 07:33:46;;;;;;;17.77;11.97;;;7.60;99.90;;;;;;5044194;28;20428;-81
2022/03/31 07:36:31;;;;;;;18.77;12.30;;;7.70;99.90;;;;;;5044605;28;20438;-81
2022/03/31 07:39:16;;;;;;;18.87;11.13;;;7.70;99.90;;;;;;5045932;28;20456;-81
2022/03/31 07:42:00;;;;;;;19.27;14.00;;;7.60;99.90;;;;;;5045161;28;20465;-81
2022/03/31 07:44:45;;;;;;;21.20;13.23;;;7.50;99.90;;;;;;5031845;28;20481;-80
2022/03/31 07:47:29;;;;;;;27.70;13.60;;;7.50;99.90;;;;;;5042223;28;20815;-81
2022/03/31 07:50:16;;;;;;;18.30;12.63;;;7.50;99.90;;;;;;5040956;28;20442;-81
2022/03/31 07:53:01;;;;;;;22.50;11.60;;;7.60;99.90;;;;;;5060306;28;20541;-82
2022/03/31 07:55:46;;;;;;;23.90;12.00;;;7.50;99.90;;;;;;5097747;28;20456;-81
2022/03/31 07:58:33;;;;;;;14.33;10.60;;;7.10;99.90;;;;;;5095417;28;20552;-80
2022/03/31 08:01:18;;;;;;;13.30;11.37;;;6.90;99.90;;;;;;5098713;28;20432;-81
2022/03/31 08:04:05;;;;;;;21.23;13.93;;;6.90;99.90;;;;;;5094218;28;20461;-82
2022/03/31 08:06:50;;;;;;;30.83;13.23;;;7.20;99.90;;;;;;5096845;28;20431;-81
2022/03/31 08:09:35;;;;;;;19.07;11.73;;;7.30;99.90;;;;;;5101458;28;20562;-81
2022/03/31 08:12:20;;;;;;;15.97;11.50;;;7.30;99.90;;;;;;5103494;28;20427;-81
2022/03/31 08:15:05;;;;;;;21.43;12.23;;;7.30;99.90;;;;;;5094363;28;20511;-81
2022/03/31 08:17:51;;;;;;;16.40;11.40;;;7.50;99.90;;;;;;5082626;28;20543;-80
2022/03/31 08:20:35;;;;;;;16.20;12.10;;;7.20;99.90;;;;;;5101704;28;20494;-82
2022/03/31 08:23:20;;;;;;;16.37;12.47;;;7.50;99.90;;;;;;5094089;28;20462;-80
2022/03/31 08:26:06;;;;;;;17.10;12.67;;;7.50;99.90;;;;;;5089696;28;20420;-81
2022/03/31 08:28:50;;;;;;;23.97;13.93;;;7.50;99.90;;;;;;5095708;28;20493;-82
2022/03/31 08:31:36;;;;;;;27.97;13.00;;;7.70;99.90;;;;;;5074393;28;20411;-81
2022/03/31 08:34:20;;;;;;;20.50;11.77;;;7.50;99.90;;;;;;5095028;28;20804;-81
2022/03/31 08:37:06;;;;;;;17.13;12.20;;;7.70;99.90;;;;;;5097514;28;20424;-81
2022/03/31 08:39:50;;;;;;;17.27;11.90;;;7.90;99.90;;;;;;5095632;28;20178;-81
2022/03/31 08:42:35;;;;;;;12.97;11.57;;;8.00;99.90;;;;;;5090844;28;20455;-81
2022/03/31 08:45:20;;;;;;;16.20;10.80;;;8.10;99.90;;;;;;5059892;28;20427;-79
2022/03/31 08:48:06;;;;;;;13.43;11.50;;;8.20;99.90;;;;;;5103021;27;20427;-82
2022/03/31 08:50:51;;;;;;;20.97;12.87;;;7.70;99.90;;;;;;5079782;28;20451;-81
2022/03/31 08:53:36;;;;;;;18.23;11.73;;;7.10;99.90;;;;;;5095112;28;20433;-82
2022/03/31 08:56:20;;;;;;;17.97;11.67;;;7.20;99.90;;;;;;5094118;28;20451;-82
2022/03/31 08:59:07;;;;;;;16.33;12.90;;;7.00;99.90;;;;;;5093448;28;20937;-81
2022/03/31 09:01:53;;;;;;;15.43;11.20;;;7.10;99.90;;;;;;5103871;28;20982;-81
2022/03/31 09:04:38;;;;;;;18.43;13.40;;;7.50;99.90;;;;;;5099365;28;20416;-80
2022/03/31 09:07:23;;;;;;;17.53;11.70;;;7.80;99.90;;;;;;5094779;28;20751;-82
2022/03/31 09:10:08;;;;;;;21.33;11.83;;;7.50;99.90;;;;;;5097443;28;20470;-81
2022/03/31 09:12:53;;;;;;;13.20;11.60;;;7.60;99.90;;;;;;5099940;28;20474;-82
2022/03/31 09:15:48;;;;;;;20.00;11.43;;;7.70;99.90;;;;;;5096103;28;20786;-81
2022/03/31 09:18:34;;;;;;;15.97;10.73;;;8.00;99.90;;;;;;5090152;28;20751;-80
2022/03/31 09:21:22;;;;;;;19.50;12.13;;;7.90;99.90;;;;;;5090939;28;20990;-82
2022/03/31 09:24:15;;;;;;;17.67;12.37;;;8.20;99.90;;;;;;5094615;28;20416;-81
2022/03/31 09:27:02;;;;;;;21.17;11.63;;;8.30;99.90;;;;;;5078201;28;20789;-82
2022/03/31 09:29:46;;;;;;;22.93;12.13;;;8.20;99.90;;;;;;5103941;28;20423;-81
2022/03/31 09:32:32;;;;;;;20.10;14.47;;;8.30;99.90;;;;;;5093423;28;20478;-82
2022/03/31 09:35:23;;;;;;;16.70;12.50;;;8.50;99.90;;;;;;5089689;28;20966;-82
2022/03/31 09:38:12;;;;;;;19.70;12.50;;;8.80;99.90;;;;;;5096012;28;20430;-81
2022/03/31 09:40:58;;;;;;;21.87;13.97;;;8.90;99.90;;;;;;5097948;28;20481;-81
2022/03/31 09:43:42;;;;;;;14.97;10.10;;;8.30;99.90;;;;;;5097775;28;20423;-81
2022/03/31 09:46:30;;;;;;;19.73;13.20;;;7.90;99.90;;;;;;5100028;28;20429;-80
2022/03/31 09:49:18;;;;;;;25.97;12.80;;;8.00;99.90;;;;;;5094763;28;20817;-81
2022/03/31 09:52:07;;;;;;;25.13;16.10;;;8.20;99.90;;;;;;5094968;28;20784;-82
2022/03/31 09:54:52;;;;;;;18.50;11.70;;;8.00;99.90;;;;;;5095473;28;20462;-81
2022/03/31 09:57:39;;;;;;;23.07;15.00;;;8.30;99.90;;;;;;5093644;28;20417;-79
2022/03/31 10:00:24;;;;;;;15.27;11.63;;;8.40;99.90;;;;;;5085508;28;21957;-81
2022/03/31 10:03:12;;;;;;;23.23;13.53;;;8.50;99.90;;;;;;5080584;28;20795;-82
2022/03/31 10:06:00;;;;;;;26.40;15.27;;;9.00;99.90;;;;;;5099230;28;20967;-81
2022/03/31 10:08:46;;;;;;;23.50;12.53;;;8.80;99.90;;;;;;5086442;28;20505;-81
2022/03/31 10:11:34;;;;;;;19.00;13.03;;;8.80;99.90;;;;;;5094252;28;20801;-81
2022/03/31 10:14:30;;;;;;;23.97;13.00;;;8.40;99.90;;;;;;5085358;28;20431;-81
2022/03/31 10:17:16;;;;;;;19.27;14.07;;;8.60;99.90;;;;;;5098471;28;21048;-80
2022/03/31 10:20:10;;;;;;;20.30;12.67;;;8.60;99.90;;;;;;5090743;28;20880;-82
2022/03/31 10:26:01;;;;;;;22.93;14.83;;;9.00;99.90;;;;;;5090302;28;20427;-81
2022/03/31 10:28:58;;;;;;;22.23;15.23;;;9.30;99.90;;;;;;5094980;28;20467;-81
2022/03/31 10:31:44;;;;;;;17.70;13.70;;;9.30;99.90;;;;;;5095779;28;20428;-80
2022/03/31 10:34:35;;;;;;;18.83;14.57;;;9.50;99.90;;;;;;5096770;28;20439;-82
2022/03/31 10:37:37;;;;;;;23.10;14.80;;;9.40;99.90;;;;;;5077888;28;20477;-81
2022/03/31 10:40:33;;;;;;;18.23;12.00;;;9.50;99.90;;;;;;5095854;28;20425;-81
2022/03/31 10:43:26;;;;;;;14.63;12.97;;;8.40;99.90;;;;;;5092005;28;20471;-80
2022/03/31 10:46:20;;;;;;;22.00;13.50;;;8.40;99.90;;;;;;5096916;28;20876;-82
2022/03/31 10:49:10;;;;;;;23.73;13.47;;;8.60;99.90;;;;;;5087006;28;20435;-82
2022/03/31 10:51:55;;;;;;;20.93;13.13;;;8.90;99.90;;;;;;5083347;28;20428;-83
2022/03/31 10:54:40;;;;;;;25.27;12.00;;;8.80;99.90;;;;;;5099756;28;20477;-80
2022/03/31 10:57:24;;;;;;;18.00;11.97;;;8.50;99.90;;;;;;5083191;28;20528;-82
2022/03/31 11:00:14;;;;;;;18.63;12.73;;;8.40;99.90;;;;;;5090920;28;20423;-80
2022/03/31 11:02:59;;;;;;;20.30;13.03;;;8.70;99.90;;;;;;5079415;28;20907;-80
2022/03/31 11:05:43;;;;;;;24.43;15.83;;;8.40;99.90;;;;;;5059631;28;20508;-81
2022/03/31 11:08:29;;;;;;;26.00;14.53;;;8.20;99.90;;;;;;5073421;28;20467;-81
2022/03/31 11:11:23;;;;;;;24.17;16.13;;;8.40;99.90;;;;;;5053625;28;20448;-80
2022/03/31 11:14:09;;;;;;;21.93;17.50;;;8.40;99.90;;;;;;5078358;28;20432;-80
2022/03/31 11:16:54;;;;;;;20.37;13.20;;;8.50;99.90;;;;;;5071523;28;20424;-80
2022/03/31 11:19:38;;;;;;;21.80;14.67;;;8.60;99.90;;;;;;5096584;28;20423;-81
2022/03/31 11:22:27;;;;;;;26.40;16.13;;;8.80;99.90;;;;;;5098894;28;20466;-81
2022/03/31 11:25:12;;;;;;;24.47;14.80;;;8.80;99.90;;;;;;5097909;28;20912;-81
2022/03/31 11:27:58;;;;;;;28.33;16.60;;;8.60;99.90;;;;;;5101231;28;20427;-80
2022/03/31 11:30:44;;;;;;;20.00;14.10;;;8.50;99.90;;;;;;5098561;28;20906;-80
2022/03/31 11:33:36;;;;;;;28.20;15.47;;;8.50;99.90;;;;;;5101332;28;20506;-80
2022/03/31 11:36:21;;;;;;;27.67;17.90;;;8.70;99.90;;;;;;5098343;28;20423;-81
2022/03/31 11:39:06;;;;;;;23.50;15.13;;;8.60;99.90;;;;;;5102150;28;20431;-81
2022/03/31 11:41:51;;;;;;;29.50;16.97;;;8.60;99.90;;;;;;5076654;28;20459;-81
2022/03/31 11:44:42;;;;;;;18.97;13.47;;;8.60;99.90;;;;;;5081700;28;20423;-80
2022/03/31 11:47:27;;;;;;;16.90;13.73;;;8.50;99.90;;;;;;5093537;28;20504;-81
2022/03/31 11:50:11;;;;;;;17.37;12.60;;;8.50;99.90;;;;;;5091752;28;20433;-81
2022/03/31 11:52:56;;;;;;;19.80;12.93;;;8.30;99.90;;;;;;5091424;28;20492;-80
2022/03/31 11:55:41;;;;;;;18.20;13.07;;;8.50;99.90;;;;;;5099730;28;20479;-80
2022/03/31 11:58:32;;;;;;;19.10;13.60;;;8.70;99.90;;;;;;5097358;28;20420;-82
2022/03/31 12:01:20;;;;;;;16.20;12.90;;;8.60;99.90;;;;;;5080290;28;20432;-81
2022/03/31 12:04:06;;;;;;;22.53;14.43;;;8.80;99.90;;;;;;5099260;28;20431;-81
2022/03/31 12:06:53;;;;;;;21.07;15.10;;;9.00;99.90;;;;;;5086669;28;20448;-80
2022/03/31 12:09:41;;;;;;;15.27;10.43;;;8.70;99.90;;;;;;5074785;28;20823;-81
2022/03/31 12:12:26;;;;;;;16.50;12.47;;;8.60;99.90;;;;;;5107495;28;20443;-81
2022/03/31 12:15:10;;;;;;;21.47;12.80;;;8.60;99.90;;;;;;5100251;28;20431;-81
2022/03/31 12:17:59;;;;;;;21.27;13.23;;;8.90;99.90;;;;;;5098280;28;20427;-82
2022/03/31 12:20:47;;;;;;;21.90;12.70;;;8.70;99.90;;;;;;5092457;28;20431;-81
2022/03/31 12:23:32;;;;;;;20.00;13.37;;;8.70;99.90;;;;;;5098746;28;20459;-81
2022/03/31 12:26:22;;;;;;;18.27;13.27;;;8.60;99.90;;;;;;5082983;28;20428;-81
2022/03/31 12:29:23;;;;;;;26.30;14.13;;;8.60;99.90;;;;;;5107102;28;20430;-81
2022/03/31 12:32:10;;;;;;;22.63;16.13;;;8.80;99.90;;;;;;5100996;28;20472;-81
2022/03/31 12:34:59;;;;;;;19.43;14.33;;;9.00;99.90;;;;;;5096787;28;20445;-78
2022/03/31 12:37:46;;;;;;;23.53;13.90;;;9.10;99.90;;;;;;5089893;28;20467;-79
2022/03/31 12:40:31;;;;;;;21.03;13.10;;;8.80;99.90;;;;;;5092603;28;20450;-81
2022/03/31 12:43:24;;;;;;;21.20;15.57;;;8.90;99.90;;;;;;5098680;28;20501;-82
2022/03/31 12:46:16;;;;;;;20.57;12.90;;;8.90;99.90;;;;;;5087982;28;20450;-82
2022/03/31 12:49:08;;;;;;;21.00;12.93;;;8.80;99.90;;;;;;5106496;28;20462;-81
2022/03/31 12:51:55;;;;;;;19.00;10.53;;;8.60;99.90;;;;;;5107577;28;20462;-81
2022/03/31 12:54:47;;;;;;;26.10;14.80;;;8.70;99.90;;;;;;5108856;28;20446;-81
2022/03/31 12:57:31;;;;;;;18.23;11.87;;;8.80;99.90;;;;;;5111441;28;20427;-81
2022/03/31 13:00:18;;;;;;;20.90;12.30;;;8.70;99.90;;;;;;5105981;28;20420;-81
2022/03/31 13:03:03;;;;;;;16.67;11.17;;;8.70;99.90;;;;;;5101312;28;20455;-81
2022/03/31 13:05:48;;;;;;;19.93;14.10;;;8.60;99.90;;;;;;5086528;28;20555;-83
2022/03/31 13:08:32;;;;;;;18.30;11.87;;;8.70;99.90;;;;;;5085996;28;20434;-82
2022/03/31 13:11:17;;;;;;;18.17;12.30;;;8.60;99.90;;;;;;5095617;28;20843;-81
2022/03/31 13:14:02;;;;;;;18.60;13.37;;;8.50;99.90;;;;;;5094501;28;20460;-82
2022/03/31 13:16:47;;;;;;;16.50;10.57;;;8.40;99.90;;;;;;5082757;28;20958;-82
2022/03/31 13:19:32;;;;;;;15.90;9.60;;;8.50;99.90;;;;;;5081534;28;20753;-81
2022/03/31 13:22:24;;;;;;;21.27;13.03;;;8.60;99.90;;;;;;5100960;28;20475;-82
2022/03/31 13:25:11;;;;;;;18.93;12.70;;;8.60;99.90;;;;;;5083138;28;20452;-79
2022/03/31 13:27:55;;;;;;;23.20;14.73;;;8.70;99.90;;;;;;5084592;28;20882;-82
2022/03/31 13:30:40;;;;;;;16.73;12.07;;;8.90;99.90;;;;;;5088366;28;20431;-80
2022/03/31 13:33:25;;;;;;;21.00;13.90;;;9.10;99.90;;;;;;5105471;28;20528;-79
2022/03/31 13:36:09;;;;;;;25.00;15.73;;;9.00;99.90;;;;;;5113553;28;20423;-78
2022/03/31 13:38:54;;;;;;;21.30;14.40;;;9.20;99.90;;;;;;5095136;28;20487;-79
2022/03/31 13:41:59;;;;;;;23.60;12.30;;;9.30;99.90;;;;;;5104626;28;20466;-81
2022/03/31 13:44:44;;;;;;;17.73;12.50;;;9.50;99.90;;;;;;5036298;28;20442;-79
2022/03/31 13:47:28;;;;;;;17.90;12.30;;;9.40;99.90;;;;;;5021314;28;20514;-80
2022/03/31 13:50:17;;;;;;;16.60;9.70;;;9.40;99.90;;;;;;5030490;28;20791;-79
2022/03/31 13:54:05;;;;;;;15.90;10.97;;;9.00;99.90;;;;;;5037447;28;20493;-78
2022/03/31 13:56:06;;;;;;;16.10;10.20;;;8.90;99.90;;;;;;5023774;28;20454;-80
2022/03/31 14:01:48;;;;;;;11.43;8.40;;;8.90;99.90;;;;;;5020931;28;20548;-79
2022/03/31 14:04:33;;;;;;;14.90;10.30;;;9.10;99.90;;;;;;5026923;28;20490;-80
2022/03/31 14:07:17;;;;;;;16.57;11.90;;;9.10;99.90;;;;;;5031516;28;20503;-79
2022/03/31 14:10:04;;;;;;;14.40;10.30;;;9.30;99.90;;;;;;5035383;28;20484;-80
2022/03/31 14:12:50;;;;;;;17.93;11.73;;;9.30;99.90;;;;;;5030979;28;20490;-80
2022/03/31 14:15:56;;;;;;;21.40;13.30;;;9.40;99.90;;;;;;5069838;28;20524;-82
2022/03/31 14:18:44;;;;;;;18.67;11.13;;;9.40;99.90;;;;;;5054519;28;20484;-80
2022/03/31 14:21:28;;;;;;;15.80;10.57;;;9.40;99.90;;;;;;5039635;28;20503;-78
2022/03/31 14:24:13;;;;;;;18.87;12.30;;;9.30;99.90;;;;;;5040218;28;20585;-81